IGO301 OKKK-VABB
Flight info
| Callsign | IGO301 |
|---|---|
| Flight time | 3h 22m |
| Altitude | 35000 |
| Route | OKKK/33R N0459F370 SESR4F SESRU M677 OBNET DCT TONVO P307 VAXIM L301 KARKU M638 EXOLU POKO2A VABB/27 |
| Aircraft | A321/M-SDFGHIRWY/C |
Departure
| Time | 2026-05-06 11:46 |
|---|---|
| Airport | Kuwait International Airport (OKKK) |
Arrival
| Time | 2026-05-06 15:09 |
|---|---|
| Airport | Chhatrapati Shivaji Maharaj International Airport (VABB) |
| Time | Latitude | Longitude | Altitude | Speed | Heading |
|---|---|---|---|---|---|
| 2026-05-06 11:02 | 29.23841 | 47.96913 | 154 ft | 0 kts | 332° |
| 2026-05-06 11:31 | 29.23825 | 47.96922 | 154 ft | 3 kts | 332° |
| 2026-05-06 11:31 | 29.23809 | 47.96932 | 154 ft | 3 kts | 332° |
| 2026-05-06 11:32 | 29.23793 | 47.96942 | 155 ft | 3 kts | 332° |
| 2026-05-06 11:32 | 29.23778 | 47.96954 | 155 ft | 3 kts | 289° |
| 2026-05-06 11:32 | 29.23778 | 47.96972 | 155 ft | 0 kts | 240° |
| 2026-05-06 11:37 | 29.23765 | 47.96945 | 155 ft | 10 kts | 240° |
| 2026-05-06 11:37 | 29.23732 | 47.96870 | 154 ft | 11 kts | 250° |
| 2026-05-06 11:37 | 29.23707 | 47.96800 | 153 ft | 0 kts | 244° |
| 2026-05-06 11:38 | 29.23703 | 47.96792 | 153 ft | 2 kts | 242° |
| 2026-05-06 11:38 | 29.23694 | 47.96771 | 153 ft | 4 kts | 244° |
| 2026-05-06 11:38 | 29.23693 | 47.96769 | 153 ft | 0 kts | 245° |
| 2026-05-06 11:39 | 29.23676 | 47.96728 | 152 ft | 13 kts | 244° |
| 2026-05-06 11:40 | 29.23621 | 47.96644 | 152 ft | 14 kts | 197° |
| 2026-05-06 11:40 | 29.23533 | 47.96674 | 153 ft | 19 kts | 152° |
| 2026-05-06 11:40 | 29.23376 | 47.96760 | 155 ft | 26 kts | 155° |
| 2026-05-06 11:40 | 29.23215 | 47.96846 | 157 ft | 25 kts | 155° |
| 2026-05-06 11:41 | 29.23062 | 47.96928 | 159 ft | 24 kts | 155° |
| 2026-05-06 11:41 | 29.22913 | 47.97007 | 161 ft | 24 kts | 155° |
| 2026-05-06 11:41 | 29.22755 | 47.97092 | 163 ft | 26 kts | 154° |
| 2026-05-06 11:41 | 29.22584 | 47.97181 | 165 ft | 27 kts | 155° |
| 2026-05-06 11:42 | 29.22411 | 47.97273 | 167 ft | 30 kts | 155° |
| 2026-05-06 11:42 | 29.22220 | 47.97375 | 170 ft | 30 kts | 156° |
| 2026-05-06 11:42 | 29.22037 | 47.97474 | 172 ft | 30 kts | 154° |
| 2026-05-06 11:42 | 29.21842 | 47.97578 | 174 ft | 31 kts | 155° |
| 2026-05-06 11:43 | 29.21652 | 47.97678 | 176 ft | 29 kts | 155° |
| 2026-05-06 11:43 | 29.21471 | 47.97775 | 179 ft | 28 kts | 154° |
| 2026-05-06 11:43 | 29.21300 | 47.97862 | 181 ft | 24 kts | 175° |
| 2026-05-06 11:44 | 29.21313 | 47.97621 | 178 ft | 21 kts | 309° |
| 2026-05-06 11:44 | 29.21358 | 47.97581 | 177 ft | 0 kts | 335° |
| 2026-05-06 11:45 | 29.21425 | 47.97546 | 177 ft | 43 kts | 335° |
| 2026-05-06 11:45 | 29.21977 | 47.97257 | 171 ft | 130 kts | 336° |
| 2026-05-06 11:46 | 29.23064 | 47.96679 | 162 ft | 207 kts | 336° |
| 2026-05-06 11:46 | 29.24446 | 47.95924 | 630 ft | 228 kts | 336° |
| 2026-05-06 11:46 | 29.25947 | 47.95071 | 1113 ft | 258 kts | 334° |
| 2026-05-06 11:46 | 29.27676 | 47.94085 | 1594 ft | 297 kts | 335° |
| 2026-05-06 11:47 | 29.29679 | 47.93026 | 1975 ft | 326 kts | 337° |
| 2026-05-06 11:47 | 29.31671 | 47.92015 | 2472 ft | 318 kts | 337° |
| 2026-05-06 11:47 | 29.33720 | 47.90965 | 2985 ft | 327 kts | 336° |
| 2026-05-06 11:47 | 29.35829 | 47.89929 | 3481 ft | 331 kts | 345° |
| 2026-05-06 11:48 | 29.38141 | 47.89805 | 3871 ft | 341 kts | 9° |
| 2026-05-06 11:48 | 29.40353 | 47.90821 | 3996 ft | 349 kts | 34° |
| 2026-05-06 11:48 | 29.42027 | 47.92821 | 4011 ft | 351 kts | 59° |
| 2026-05-06 11:48 | 29.42830 | 47.95443 | 4015 ft | 351 kts | 83° |
| 2026-05-06 11:49 | 29.42868 | 47.98246 | 4000 ft | 352 kts | 89° |
| 2026-05-06 11:49 | 29.43113 | 48.01040 | 4010 ft | 352 kts | 79° |
| 2026-05-06 11:49 | 29.43705 | 48.03774 | 4376 ft | 354 kts | 73° |
| 2026-05-06 11:49 | 29.44376 | 48.06499 | 4826 ft | 357 kts | 84° |
| 2026-05-06 11:50 | 29.44204 | 48.09288 | 5278 ft | 357 kts | 109° |
| 2026-05-06 11:50 | 29.43156 | 48.11913 | 5745 ft | 360 kts | 121° |
| 2026-05-06 11:50 | 29.41968 | 48.14422 | 6203 ft | 365 kts | 120° |
| 2026-05-06 11:50 | 29.40831 | 48.17050 | 6636 ft | 370 kts | 118° |
| 2026-05-06 11:51 | 29.39768 | 48.19755 | 7085 ft | 373 kts | 116° |
| 2026-05-06 11:51 | 29.38753 | 48.22509 | 7539 ft | 376 kts | 115° |
| 2026-05-06 11:51 | 29.37763 | 48.25293 | 7997 ft | 378 kts | 114° |
| 2026-05-06 11:51 | 29.36784 | 48.28100 | 8468 ft | 380 kts | 114° |
| 2026-05-06 11:52 | 29.35808 | 48.30927 | 8948 ft | 382 kts | 114° |
| 2026-05-06 11:52 | 29.34831 | 48.33772 | 9413 ft | 384 kts | 114° |
| 2026-05-06 11:52 | 29.33850 | 48.36636 | 9887 ft | 386 kts | 114° |
| 2026-05-06 11:52 | 29.32865 | 48.39512 | 10242 ft | 388 kts | 114° |
| 2026-05-06 11:53 | 29.31885 | 48.42374 | 10566 ft | 390 kts | 114° |
| 2026-05-06 11:53 | 29.30891 | 48.45277 | 10895 ft | 392 kts | 114° |
| 2026-05-06 11:53 | 29.29891 | 48.48196 | 11221 ft | 394 kts | 115° |
| 2026-05-06 11:53 | 29.28890 | 48.51114 | 11554 ft | 396 kts | 115° |
| 2026-05-06 11:54 | 29.27893 | 48.54018 | 11894 ft | 398 kts | 115° |
| 2026-05-06 11:54 | 29.26865 | 48.57011 | 12234 ft | 400 kts | 115° |
| 2026-05-06 11:54 | 29.25844 | 48.59981 | 12579 ft | 402 kts | 115° |
| 2026-05-06 11:54 | 29.24830 | 48.62927 | 12921 ft | 403 kts | 115° |
| 2026-05-06 11:55 | 29.23799 | 48.65923 | 13273 ft | 405 kts | 115° |
| 2026-05-06 11:55 | 29.22761 | 48.68933 | 13627 ft | 407 kts | 115° |
| 2026-05-06 11:55 | 29.21717 | 48.71958 | 13950 ft | 410 kts | 115° |
| 2026-05-06 11:55 | 29.20663 | 48.75010 | 14276 ft | 413 kts | 115° |
| 2026-05-06 11:56 | 29.19602 | 48.78081 | 14600 ft | 416 kts | 115° |
| 2026-05-06 11:56 | 29.18532 | 48.81173 | 14933 ft | 419 kts | 115° |
| 2026-05-06 11:56 | 29.17454 | 48.84287 | 15264 ft | 422 kts | 115° |
| 2026-05-06 11:56 | 29.16370 | 48.87418 | 15598 ft | 426 kts | 115° |
| 2026-05-06 11:57 | 29.15299 | 48.90595 | 15941 ft | 430 kts | 113° |
| 2026-05-06 11:57 | 29.14063 | 48.93687 | 16276 ft | 425 kts | 128° |
| 2026-05-06 11:57 | 29.12098 | 48.96160 | 16629 ft | 418 kts | 144° |
| 2026-05-06 11:57 | 29.09767 | 48.98141 | 16987 ft | 418 kts | 151° |
| 2026-05-06 11:58 | 29.07326 | 48.99973 | 17339 ft | 421 kts | 152° |
| 2026-05-06 11:58 | 29.04877 | 49.01849 | 17699 ft | 425 kts | 150° |
| 2026-05-06 11:58 | 29.02492 | 49.03812 | 18062 ft | 430 kts | 148° |
| 2026-05-06 11:58 | 29.00113 | 49.05917 | 18393 ft | 434 kts | 147° |
| 2026-05-06 11:59 | 28.97767 | 49.08107 | 18701 ft | 438 kts | 145° |
| 2026-05-06 11:59 | 28.95429 | 49.10360 | 19021 ft | 440 kts | 144° |
| 2026-05-06 11:59 | 28.93101 | 49.12638 | 19347 ft | 442 kts | 144° |
| 2026-05-06 11:59 | 28.90755 | 49.14942 | 19677 ft | 444 kts | 144° |
| 2026-05-06 12:00 | 28.88410 | 49.17242 | 20010 ft | 446 kts | 144° |
| 2026-05-06 12:00 | 28.86062 | 49.19587 | 20346 ft | 449 kts | 144° |
| 2026-05-06 12:00 | 28.83726 | 49.21972 | 20688 ft | 451 kts | 143° |
| 2026-05-06 12:00 | 28.81419 | 49.24349 | 21017 ft | 453 kts | 143° |
| 2026-05-06 12:01 | 28.79072 | 49.26773 | 21365 ft | 456 kts | 143° |
| 2026-05-06 12:01 | 28.76716 | 49.29204 | 21717 ft | 458 kts | 143° |
| 2026-05-06 12:01 | 28.74348 | 49.31642 | 22075 ft | 460 kts | 143° |
| 2026-05-06 12:01 | 28.71962 | 49.34090 | 22437 ft | 463 kts | 143° |
| 2026-05-06 12:02 | 28.69564 | 49.36546 | 22803 ft | 465 kts | 143° |
| 2026-05-06 12:02 | 28.67148 | 49.39017 | 23175 ft | 467 kts | 143° |
| 2026-05-06 12:02 | 28.64723 | 49.41495 | 23516 ft | 469 kts | 143° |
| 2026-05-06 12:02 | 28.62286 | 49.43983 | 23820 ft | 472 kts | 143° |
| 2026-05-06 12:03 | 28.59994 | 49.46694 | 24129 ft | 481 kts | 134° |
| 2026-05-06 12:03 | 28.58028 | 49.49809 | 24448 ft | 488 kts | 128° |
| 2026-05-06 12:03 | 28.56253 | 49.53120 | 24777 ft | 493 kts | 125° |
| 2026-05-06 12:03 | 28.54553 | 49.56520 | 25093 ft | 496 kts | 124° |
| 2026-05-06 12:04 | 28.52857 | 49.59950 | 25422 ft | 498 kts | 124° |
| 2026-05-06 12:04 | 28.51133 | 49.63381 | 25739 ft | 500 kts | 125° |
| 2026-05-06 12:04 | 28.49372 | 49.66810 | 26070 ft | 501 kts | 126° |
| 2026-05-06 12:04 | 28.47590 | 49.70215 | 26408 ft | 503 kts | 126° |
| 2026-05-06 12:05 | 28.45780 | 49.73625 | 26760 ft | 504 kts | 127° |
| 2026-05-06 12:05 | 28.43958 | 49.77033 | 27100 ft | 505 kts | 127° |
| 2026-05-06 12:05 | 28.42118 | 49.80427 | 27445 ft | 504 kts | 130° |
| 2026-05-06 12:05 | 28.39895 | 49.83354 | 27792 ft | 489 kts | 145° |
| 2026-05-06 12:06 | 28.37226 | 49.85678 | 28138 ft | 481 kts | 153° |
| 2026-05-06 12:06 | 28.34401 | 49.87684 | 28502 ft | 478 kts | 157° |
| 2026-05-06 12:06 | 28.31535 | 49.89585 | 28871 ft | 477 kts | 158° |
| 2026-05-06 12:06 | 28.28662 | 49.91506 | 29242 ft | 478 kts | 157° |
| 2026-05-06 12:07 | 28.25817 | 49.93480 | 29621 ft | 479 kts | 156° |
| 2026-05-06 12:07 | 28.22998 | 49.95511 | 29985 ft | 480 kts | 155° |
| 2026-05-06 12:07 | 28.20198 | 49.97586 | 30307 ft | 481 kts | 155° |
| 2026-05-06 12:07 | 28.17416 | 49.99684 | 30610 ft | 480 kts | 154° |
| 2026-05-06 12:08 | 28.14659 | 50.01780 | 30935 ft | 480 kts | 154° |
| 2026-05-06 12:08 | 28.11900 | 50.03882 | 31263 ft | 479 kts | 155° |
| 2026-05-06 12:08 | 28.09134 | 50.05988 | 31597 ft | 478 kts | 155° |
| 2026-05-06 12:08 | 28.06405 | 50.08061 | 31927 ft | 477 kts | 155° |
| 2026-05-06 12:09 | 28.03647 | 50.10151 | 32269 ft | 476 kts | 155° |
| 2026-05-06 12:09 | 28.00890 | 50.12237 | 32603 ft | 475 kts | 155° |
| 2026-05-06 12:09 | 27.98137 | 50.14317 | 32954 ft | 474 kts | 155° |
| 2026-05-06 12:09 | 27.95406 | 50.16379 | 33308 ft | 472 kts | 156° |
| 2026-05-06 12:10 | 27.92669 | 50.18443 | 33668 ft | 471 kts | 156° |
| 2026-05-06 12:10 | 27.89953 | 50.20491 | 33994 ft | 469 kts | 156° |
| 2026-05-06 12:10 | 27.87241 | 50.22534 | 34306 ft | 467 kts | 156° |
| 2026-05-06 12:10 | 27.84581 | 50.24537 | 34617 ft | 465 kts | 156° |
| 2026-05-06 12:11 | 27.81878 | 50.26568 | 34783 ft | 467 kts | 156° |
| 2026-05-06 12:11 | 27.79162 | 50.28604 | 34826 ft | 470 kts | 156° |
| 2026-05-06 12:11 | 27.73712 | 50.32694 | 34824 ft | 470 kts | 156° |
| 2026-05-06 12:12 | 27.68266 | 50.36783 | 34813 ft | 470 kts | 156° |
| 2026-05-06 12:12 | 27.62854 | 50.40841 | 34813 ft | 470 kts | 155° |
| 2026-05-06 12:13 | 27.57425 | 50.44975 | 34815 ft | 472 kts | 155° |
| 2026-05-06 12:13 | 27.51989 | 50.49151 | 34817 ft | 475 kts | 155° |
| 2026-05-06 12:14 | 27.46503 | 50.53356 | 34811 ft | 478 kts | 155° |
| 2026-05-06 12:14 | 27.41017 | 50.57553 | 34809 ft | 478 kts | 155° |
| 2026-05-06 12:15 | 27.35505 | 50.61764 | 34806 ft | 478 kts | 155° |
| 2026-05-06 12:15 | 27.29997 | 50.65966 | 34802 ft | 478 kts | 155° |
| 2026-05-06 12:16 | 27.24483 | 50.70166 | 34802 ft | 479 kts | 155° |
| 2026-05-06 12:16 | 27.18999 | 50.74342 | 34802 ft | 479 kts | 155° |
| 2026-05-06 12:17 | 27.13683 | 50.78948 | 34806 ft | 490 kts | 146° |
| 2026-05-06 12:17 | 27.08768 | 50.84292 | 34791 ft | 493 kts | 143° |
| 2026-05-06 12:18 | 27.03946 | 50.89771 | 34797 ft | 493 kts | 142° |
| 2026-05-06 12:18 | 26.99432 | 50.95632 | 34797 ft | 505 kts | 131° |
| 2026-05-06 12:19 | 26.95575 | 51.02250 | 34793 ft | 508 kts | 129° |
| 2026-05-06 12:19 | 26.91881 | 51.08958 | 34790 ft | 509 kts | 128° |
| 2026-05-06 12:20 | 26.88215 | 51.15755 | 34787 ft | 512 kts | 123° |
| 2026-05-06 12:20 | 26.85509 | 51.23225 | 34791 ft | 519 kts | 115° |
| 2026-05-06 12:21 | 26.83168 | 51.30907 | 34793 ft | 521 kts | 114° |
| 2026-05-06 12:21 | 26.80904 | 51.38591 | 34793 ft | 524 kts | 114° |
| 2026-05-06 12:22 | 26.78600 | 51.46349 | 34789 ft | 525 kts | 114° |
| 2026-05-06 12:22 | 26.76271 | 51.54113 | 34793 ft | 525 kts | 114° |
| 2026-05-06 12:23 | 26.74330 | 51.60547 | 34791 ft | 525 kts | 114° |
| 2026-05-06 12:23 | 26.71993 | 51.68303 | 34788 ft | 526 kts | 114° |
| 2026-05-06 12:24 | 26.69293 | 51.77315 | 34786 ft | 526 kts | 114° |
| 2026-05-06 12:24 | 26.66966 | 51.85073 | 34783 ft | 524 kts | 113° |
| 2026-05-06 12:25 | 26.65025 | 51.91481 | 34782 ft | 522 kts | 114° |
| 2026-05-06 12:25 | 26.62570 | 51.99120 | 34782 ft | 522 kts | 115° |
| 2026-05-06 12:26 | 26.60063 | 52.06735 | 34781 ft | 521 kts | 115° |
| 2026-05-06 12:26 | 26.57579 | 52.14293 | 34784 ft | 521 kts | 115° |
| 2026-05-06 12:27 | 26.55089 | 52.21892 | 34781 ft | 520 kts | 115° |
| 2026-05-06 12:27 | 26.52603 | 52.29477 | 34777 ft | 519 kts | 115° |
| 2026-05-06 12:28 | 26.50116 | 52.37051 | 34780 ft | 519 kts | 115° |
| 2026-05-06 12:28 | 26.48875 | 52.40808 | 35077 ft | 510 kts | 115° |
| 2026-05-06 12:28 | 26.47646 | 52.44485 | 35603 ft | 502 kts | 115° |
| 2026-05-06 12:29 | 26.46411 | 52.48112 | 35938 ft | 499 kts | 116° |
| 2026-05-06 12:29 | 26.45166 | 52.51726 | 36197 ft | 498 kts | 116° |
| 2026-05-06 12:29 | 26.43937 | 52.55286 | 36041 ft | 494 kts | 116° |
| 2026-05-06 12:29 | 26.42704 | 52.58861 | 35374 ft | 496 kts | 115° |
| 2026-05-06 12:30 | 26.41522 | 52.62505 | 34952 ft | 504 kts | 114° |
| 2026-05-06 12:30 | 26.40351 | 52.66217 | 34801 ft | 510 kts | 114° |
| 2026-05-06 12:30 | 26.37972 | 52.73700 | 34777 ft | 512 kts | 114° |
| 2026-05-06 12:31 | 26.35534 | 52.81157 | 34775 ft | 512 kts | 114° |
| 2026-05-06 12:31 | 26.33055 | 52.88607 | 34776 ft | 512 kts | 115° |
| 2026-05-06 12:32 | 26.30579 | 52.96007 | 34772 ft | 511 kts | 114° |
| 2026-05-06 12:32 | 26.28096 | 53.03418 | 34775 ft | 510 kts | 114° |
| 2026-05-06 12:33 | 26.25610 | 53.10827 | 34777 ft | 511 kts | 115° |
| 2026-05-06 12:33 | 26.23117 | 53.18247 | 34777 ft | 511 kts | 115° |
| 2026-05-06 12:34 | 26.20640 | 53.25607 | 34772 ft | 511 kts | 114° |
| 2026-05-06 12:34 | 26.18133 | 53.33008 | 34770 ft | 510 kts | 115° |
| 2026-05-06 12:35 | 26.15338 | 53.40232 | 34773 ft | 507 kts | 118° |
| 2026-05-06 12:35 | 26.12382 | 53.47358 | 34771 ft | 507 kts | 119° |
| 2026-05-06 12:36 | 26.09428 | 53.54490 | 34774 ft | 507 kts | 119° |
| 2026-05-06 12:36 | 26.06502 | 53.61630 | 34771 ft | 507 kts | 118° |
| 2026-05-06 12:37 | 26.03605 | 53.68730 | 34768 ft | 507 kts | 118° |
| 2026-05-06 12:37 | 26.00712 | 53.75879 | 34770 ft | 508 kts | 116° |
| 2026-05-06 12:38 | 25.98205 | 53.83244 | 34771 ft | 510 kts | 113° |
| 2026-05-06 12:38 | 25.95885 | 53.90702 | 34772 ft | 510 kts | 112° |
| 2026-05-06 12:39 | 25.93542 | 53.98162 | 34769 ft | 510 kts | 113° |
| 2026-05-06 12:39 | 25.91174 | 54.05544 | 34765 ft | 510 kts | 113° |
| 2026-05-06 12:40 | 25.88770 | 54.12963 | 34769 ft | 509 kts | 113° |
| 2026-05-06 12:40 | 25.86364 | 54.20368 | 34768 ft | 509 kts | 113° |
| 2026-05-06 12:41 | 25.83960 | 54.27755 | 34764 ft | 509 kts | 113° |
| 2026-05-06 12:41 | 25.81548 | 54.35153 | 34769 ft | 509 kts | 113° |
| 2026-05-06 12:42 | 25.79133 | 54.42544 | 34765 ft | 509 kts | 113° |
| 2026-05-06 12:42 | 25.76728 | 54.49891 | 34763 ft | 509 kts | 113° |
| 2026-05-06 12:43 | 25.74311 | 54.57262 | 34762 ft | 509 kts | 113° |
| 2026-05-06 12:43 | 25.71889 | 54.64636 | 34757 ft | 509 kts | 113° |
| 2026-05-06 12:44 | 25.69463 | 54.72009 | 34754 ft | 508 kts | 113° |
| 2026-05-06 12:44 | 25.67034 | 54.79384 | 34758 ft | 509 kts | 113° |
| 2026-05-06 12:45 | 25.64601 | 54.86757 | 34755 ft | 509 kts | 113° |
| 2026-05-06 12:46 | 25.60947 | 54.97799 | 34747 ft | 508 kts | 113° |
| 2026-05-06 12:46 | 25.58528 | 55.05089 | 34751 ft | 508 kts | 113° |
| 2026-05-06 12:47 | 25.56086 | 55.12433 | 34751 ft | 508 kts | 113° |
| 2026-05-06 12:47 | 25.53641 | 55.19770 | 34750 ft | 508 kts | 113° |
| 2026-05-06 12:48 | 25.51193 | 55.27106 | 34753 ft | 508 kts | 113° |
| 2026-05-06 12:48 | 25.48740 | 55.34439 | 34752 ft | 508 kts | 112° |
| 2026-05-06 12:49 | 25.46285 | 55.41768 | 34765 ft | 507 kts | 112° |
| 2026-05-06 12:49 | 25.43846 | 55.49035 | 34774 ft | 507 kts | 112° |
| 2026-05-06 12:50 | 25.41388 | 55.56342 | 34778 ft | 507 kts | 112° |
| 2026-05-06 12:50 | 25.38923 | 55.63656 | 34766 ft | 507 kts | 112° |
| 2026-05-06 12:51 | 25.36456 | 55.70967 | 34759 ft | 507 kts | 113° |
| 2026-05-06 12:51 | 25.33986 | 55.78268 | 34755 ft | 506 kts | 112° |
| 2026-05-06 12:52 | 25.31515 | 55.85560 | 34750 ft | 506 kts | 112° |
| 2026-05-06 12:52 | 25.29044 | 55.92842 | 34750 ft | 506 kts | 112° |
| 2026-05-06 12:53 | 25.26565 | 56.00130 | 34751 ft | 506 kts | 112° |
| 2026-05-06 12:53 | 25.24087 | 56.07403 | 34750 ft | 506 kts | 112° |
| 2026-05-06 12:54 | 25.21619 | 56.14632 | 34765 ft | 506 kts | 112° |
| 2026-05-06 12:54 | 25.19131 | 56.21908 | 34760 ft | 505 kts | 112° |
| 2026-05-06 12:55 | 25.16643 | 56.29170 | 34799 ft | 504 kts | 112° |
| 2026-05-06 12:55 | 25.14156 | 56.36415 | 34800 ft | 504 kts | 112° |
| 2026-05-06 12:56 | 25.11670 | 56.43646 | 34800 ft | 504 kts | 112° |
| 2026-05-06 12:56 | 25.09180 | 56.50873 | 34790 ft | 504 kts | 112° |
| 2026-05-06 12:57 | 25.06639 | 56.58027 | 34786 ft | 504 kts | 114° |
| 2026-05-06 12:57 | 25.03985 | 56.65172 | 34764 ft | 503 kts | 114° |
| 2026-05-06 12:58 | 25.01319 | 56.72305 | 34756 ft | 503 kts | 114° |
| 2026-05-06 12:58 | 24.98663 | 56.79433 | 34760 ft | 502 kts | 114° |
| 2026-05-06 12:59 | 24.96010 | 56.86562 | 34754 ft | 503 kts | 114° |
| 2026-05-06 12:59 | 24.93354 | 56.93694 | 34754 ft | 503 kts | 114° |
| 2026-05-06 13:00 | 24.90713 | 57.00775 | 34755 ft | 503 kts | 114° |
| 2026-05-06 13:00 | 24.88054 | 57.07889 | 34752 ft | 502 kts | 114° |
| 2026-05-06 13:01 | 24.85389 | 57.15005 | 34758 ft | 502 kts | 114° |
| 2026-05-06 13:01 | 24.82724 | 57.22111 | 34752 ft | 502 kts | 114° |
| 2026-05-06 13:02 | 24.80058 | 57.29206 | 34753 ft | 502 kts | 114° |
| 2026-05-06 13:02 | 24.77388 | 57.36302 | 34756 ft | 502 kts | 114° |
| 2026-05-06 13:03 | 24.74713 | 57.43399 | 34752 ft | 502 kts | 114° |
| 2026-05-06 13:03 | 24.72035 | 57.50489 | 34745 ft | 501 kts | 114° |
| 2026-05-06 13:04 | 24.69364 | 57.57553 | 34743 ft | 500 kts | 114° |
| 2026-05-06 13:04 | 24.66688 | 57.64614 | 34750 ft | 500 kts | 114° |
| 2026-05-06 13:05 | 24.64011 | 57.71670 | 34748 ft | 500 kts | 114° |
| 2026-05-06 13:05 | 24.61338 | 57.78702 | 34751 ft | 501 kts | 114° |
| 2026-05-06 13:06 | 24.58651 | 57.85757 | 34750 ft | 501 kts | 114° |
| 2026-05-06 13:06 | 24.55960 | 57.92812 | 34750 ft | 500 kts | 114° |
| 2026-05-06 13:07 | 24.53263 | 57.99872 | 34748 ft | 501 kts | 114° |
| 2026-05-06 13:07 | 24.50563 | 58.06928 | 34751 ft | 501 kts | 114° |
| 2026-05-06 13:08 | 24.47858 | 58.13985 | 34750 ft | 501 kts | 114° |
| 2026-05-06 13:08 | 24.45168 | 58.20990 | 34750 ft | 501 kts | 114° |
| 2026-05-06 13:09 | 24.42458 | 58.28037 | 34751 ft | 502 kts | 114° |
| 2026-05-06 13:09 | 24.39742 | 58.35086 | 34754 ft | 500 kts | 114° |
| 2026-05-06 13:10 | 24.37031 | 58.42105 | 34755 ft | 499 kts | 114° |
| 2026-05-06 13:10 | 24.34321 | 58.49114 | 34745 ft | 499 kts | 114° |
| 2026-05-06 13:11 | 24.31603 | 58.56134 | 34755 ft | 499 kts | 114° |
| 2026-05-06 13:11 | 24.28883 | 58.63149 | 34745 ft | 499 kts | 114° |
| 2026-05-06 13:12 | 24.26182 | 58.70108 | 34763 ft | 499 kts | 114° |
| 2026-05-06 13:12 | 24.23460 | 58.77114 | 34758 ft | 499 kts | 114° |
| 2026-05-06 13:13 | 24.21178 | 58.82978 | 34762 ft | 498 kts | 114° |
| 2026-05-06 13:13 | 24.18475 | 58.89912 | 34692 ft | 498 kts | 114° |
| 2026-05-06 13:14 | 24.15754 | 58.96879 | 34761 ft | 498 kts | 114° |
| 2026-05-06 13:14 | 24.13025 | 59.03853 | 34783 ft | 498 kts | 114° |
| 2026-05-06 13:15 | 24.10290 | 59.10829 | 34782 ft | 498 kts | 114° |
| 2026-05-06 13:15 | 24.07555 | 59.17799 | 34782 ft | 498 kts | 114° |
| 2026-05-06 13:16 | 24.04834 | 59.24721 | 34784 ft | 497 kts | 114° |
| 2026-05-06 13:16 | 24.02104 | 59.31656 | 34788 ft | 496 kts | 114° |
| 2026-05-06 13:17 | 23.99444 | 59.38633 | 34790 ft | 497 kts | 112° |
| 2026-05-06 13:17 | 23.96860 | 59.45647 | 34788 ft | 497 kts | 112° |
| 2026-05-06 13:18 | 23.94278 | 59.52662 | 34788 ft | 497 kts | 112° |
| 2026-05-06 13:18 | 23.91683 | 59.59667 | 34790 ft | 497 kts | 112° |
| 2026-05-06 13:19 | 23.89095 | 59.66621 | 34786 ft | 497 kts | 112° |
| 2026-05-06 13:19 | 23.86488 | 59.73612 | 34789 ft | 496 kts | 112° |
| 2026-05-06 13:20 | 23.83884 | 59.80585 | 34787 ft | 495 kts | 112° |
| 2026-05-06 13:20 | 23.81282 | 59.87550 | 34790 ft | 495 kts | 112° |
| 2026-05-06 13:21 | 23.78677 | 59.94514 | 34791 ft | 496 kts | 112° |
| 2026-05-06 13:21 | 23.76083 | 60.01439 | 34792 ft | 496 kts | 112° |
| 2026-05-06 13:22 | 23.73467 | 60.08411 | 34793 ft | 496 kts | 112° |
| 2026-05-06 13:22 | 23.70857 | 60.15355 | 34795 ft | 496 kts | 112° |
| 2026-05-06 13:23 | 23.68218 | 60.22362 | 34796 ft | 500 kts | 112° |
| 2026-05-06 13:23 | 23.65571 | 60.29382 | 34798 ft | 500 kts | 112° |
| 2026-05-06 13:24 | 23.62936 | 60.36360 | 34799 ft | 500 kts | 112° |
| 2026-05-06 13:24 | 23.60278 | 60.43387 | 34797 ft | 500 kts | 112° |
| 2026-05-06 13:25 | 23.57619 | 60.50404 | 34799 ft | 501 kts | 112° |
| 2026-05-06 13:25 | 23.54957 | 60.57420 | 34797 ft | 501 kts | 112° |
| 2026-05-06 13:26 | 23.52294 | 60.64427 | 34798 ft | 500 kts | 112° |
| 2026-05-06 13:26 | 23.49629 | 60.71426 | 34797 ft | 500 kts | 112° |
| 2026-05-06 13:27 | 23.46961 | 60.78423 | 34805 ft | 500 kts | 112° |
| 2026-05-06 13:27 | 23.44304 | 60.85382 | 34802 ft | 500 kts | 112° |
| 2026-05-06 13:28 | 23.41624 | 60.92388 | 34804 ft | 500 kts | 112° |
| 2026-05-06 13:28 | 23.38943 | 60.99388 | 34807 ft | 500 kts | 112° |
| 2026-05-06 13:29 | 23.36261 | 61.06378 | 34806 ft | 500 kts | 112° |
| 2026-05-06 13:29 | 23.33573 | 61.13372 | 34806 ft | 500 kts | 112° |
| 2026-05-06 13:30 | 23.31602 | 61.20544 | 34811 ft | 498 kts | 98° |
| 2026-05-06 13:30 | 23.30735 | 61.28033 | 34806 ft | 499 kts | 95° |
| 2026-05-06 13:31 | 23.30090 | 61.35542 | 34810 ft | 499 kts | 94° |
| 2026-05-06 13:31 | 23.29464 | 61.43061 | 34812 ft | 499 kts | 94° |
| 2026-05-06 13:32 | 23.28810 | 61.50576 | 34812 ft | 499 kts | 94° |
| 2026-05-06 13:32 | 23.28136 | 61.58104 | 34809 ft | 499 kts | 94° |
| 2026-05-06 13:33 | 23.27455 | 61.65610 | 34810 ft | 499 kts | 94° |
| 2026-05-06 13:33 | 23.26771 | 61.73122 | 34812 ft | 499 kts | 95° |
| 2026-05-06 13:34 | 23.26084 | 61.80631 | 34815 ft | 499 kts | 95° |
| 2026-05-06 13:34 | 23.25398 | 61.88096 | 34813 ft | 499 kts | 95° |
| 2026-05-06 13:35 | 23.24705 | 61.95614 | 34819 ft | 500 kts | 95° |
| 2026-05-06 13:35 | 23.24003 | 62.03177 | 34817 ft | 504 kts | 95° |
| 2026-05-06 13:36 | 23.23295 | 62.10761 | 34814 ft | 504 kts | 95° |
| 2026-05-06 13:36 | 23.22584 | 62.18338 | 34814 ft | 504 kts | 95° |
| 2026-05-06 13:37 | 23.21867 | 62.25924 | 34813 ft | 504 kts | 95° |
| 2026-05-06 13:37 | 23.21145 | 62.33513 | 34816 ft | 505 kts | 95° |
| 2026-05-06 13:38 | 23.20420 | 62.41101 | 34817 ft | 505 kts | 95° |
| 2026-05-06 13:38 | 23.19692 | 62.48699 | 34812 ft | 505 kts | 95° |
| 2026-05-06 13:39 | 23.18961 | 62.56292 | 34811 ft | 505 kts | 95° |
| 2026-05-06 13:39 | 23.18231 | 62.63847 | 34819 ft | 505 kts | 95° |
| 2026-05-06 13:40 | 23.17494 | 62.71447 | 34813 ft | 505 kts | 95° |
| 2026-05-06 13:40 | 23.16754 | 62.79040 | 34812 ft | 505 kts | 95° |
| 2026-05-06 13:41 | 23.16007 | 62.86645 | 34812 ft | 506 kts | 95° |
| 2026-05-06 13:41 | 23.15257 | 62.94243 | 34809 ft | 506 kts | 95° |
| 2026-05-06 13:42 | 23.14504 | 63.01840 | 34814 ft | 505 kts | 95° |
| 2026-05-06 13:42 | 23.13748 | 63.09417 | 34813 ft | 504 kts | 95° |
| 2026-05-06 13:43 | 23.12989 | 63.16991 | 34812 ft | 505 kts | 95° |
| 2026-05-06 13:43 | 23.12225 | 63.24584 | 34813 ft | 505 kts | 95° |
| 2026-05-06 13:44 | 23.11462 | 63.32128 | 34814 ft | 505 kts | 95° |
| 2026-05-06 13:44 | 23.10690 | 63.39715 | 34813 ft | 505 kts | 95° |
| 2026-05-06 13:45 | 23.09914 | 63.47313 | 34817 ft | 505 kts | 95° |
| 2026-05-06 13:45 | 23.08745 | 63.58692 | 34817 ft | 505 kts | 95° |
| 2026-05-06 13:46 | 23.07959 | 63.66290 | 34816 ft | 505 kts | 95° |
| 2026-05-06 13:46 | 23.07177 | 63.73824 | 34813 ft | 505 kts | 95° |
| 2026-05-06 13:47 | 23.06384 | 63.81417 | 34816 ft | 506 kts | 95° |
| 2026-05-06 13:47 | 23.04890 | 63.88870 | 34810 ft | 506 kts | 109° |
| 2026-05-06 13:48 | 23.02396 | 63.96022 | 34814 ft | 507 kts | 112° |
| 2026-05-06 13:48 | 22.99703 | 64.03111 | 34811 ft | 507 kts | 112° |
| 2026-05-06 13:49 | 22.97004 | 64.10150 | 34815 ft | 508 kts | 112° |
| 2026-05-06 13:49 | 22.94304 | 64.17249 | 34815 ft | 508 kts | 112° |
| 2026-05-06 13:50 | 22.91615 | 64.24347 | 34809 ft | 508 kts | 112° |
| 2026-05-06 13:50 | 22.88923 | 64.31453 | 34821 ft | 509 kts | 112° |
| 2026-05-06 13:51 | 22.86245 | 64.38513 | 34818 ft | 509 kts | 112° |
| 2026-05-06 13:51 | 22.83546 | 64.45612 | 34817 ft | 509 kts | 112° |
| 2026-05-06 13:52 | 22.80850 | 64.52690 | 34812 ft | 506 kts | 112° |
| 2026-05-06 13:52 | 22.78159 | 64.59745 | 34818 ft | 506 kts | 112° |
| 2026-05-06 13:53 | 22.75482 | 64.66754 | 34816 ft | 506 kts | 112° |
| 2026-05-06 13:53 | 22.72783 | 64.73808 | 34813 ft | 506 kts | 112° |
| 2026-05-06 13:54 | 22.70085 | 64.80847 | 34814 ft | 506 kts | 112° |
| 2026-05-06 13:54 | 22.67383 | 64.87890 | 34817 ft | 506 kts | 112° |
| 2026-05-06 13:55 | 22.64678 | 64.94926 | 34819 ft | 506 kts | 112° |
| 2026-05-06 13:55 | 22.61973 | 65.01952 | 34821 ft | 506 kts | 112° |
| 2026-05-06 13:56 | 22.59270 | 65.08964 | 34825 ft | 505 kts | 112° |
| 2026-05-06 13:56 | 22.56581 | 65.15928 | 34823 ft | 504 kts | 112° |
| 2026-05-06 13:57 | 22.53871 | 65.22937 | 34822 ft | 504 kts | 112° |
| 2026-05-06 13:57 | 22.51152 | 65.29956 | 34825 ft | 504 kts | 112° |
| 2026-05-06 13:58 | 22.48437 | 65.36957 | 34822 ft | 505 kts | 112° |
| 2026-05-06 13:58 | 22.45715 | 65.43963 | 34821 ft | 505 kts | 112° |
| 2026-05-06 13:59 | 22.43007 | 65.50923 | 34823 ft | 505 kts | 113° |
| 2026-05-06 13:59 | 22.40280 | 65.57923 | 34829 ft | 503 kts | 112° |
| 2026-05-06 14:00 | 22.37563 | 65.64886 | 34830 ft | 503 kts | 112° |
| 2026-05-06 14:00 | 22.34844 | 65.71845 | 34828 ft | 503 kts | 112° |
| 2026-05-06 14:01 | 22.32119 | 65.78807 | 34827 ft | 502 kts | 112° |
| 2026-05-06 14:01 | 22.29412 | 65.85713 | 34826 ft | 502 kts | 113° |
| 2026-05-06 14:02 | 22.26684 | 65.92664 | 34828 ft | 502 kts | 113° |
| 2026-05-06 14:02 | 22.24412 | 65.98443 | 34826 ft | 502 kts | 113° |
| 2026-05-06 14:03 | 22.21676 | 66.05395 | 34827 ft | 502 kts | 113° |
| 2026-05-06 14:03 | 22.18943 | 66.12328 | 34824 ft | 501 kts | 112° |
| 2026-05-06 14:04 | 22.16214 | 66.19240 | 34827 ft | 500 kts | 112° |
| 2026-05-06 14:04 | 22.13480 | 66.26149 | 34829 ft | 500 kts | 112° |
| 2026-05-06 14:05 | 22.10746 | 66.33050 | 34826 ft | 501 kts | 113° |
| 2026-05-06 14:05 | 22.08006 | 66.39961 | 34829 ft | 501 kts | 113° |
| 2026-05-06 14:06 | 22.05281 | 66.46826 | 34831 ft | 500 kts | 113° |
| 2026-05-06 14:06 | 22.02537 | 66.53729 | 34830 ft | 500 kts | 113° |
| 2026-05-06 14:07 | 21.99794 | 66.60627 | 34834 ft | 501 kts | 113° |
| 2026-05-06 14:07 | 21.97047 | 66.67524 | 34829 ft | 500 kts | 113° |
| 2026-05-06 14:08 | 21.94301 | 66.74406 | 34834 ft | 500 kts | 113° |
| 2026-05-06 14:08 | 21.91553 | 66.81280 | 34830 ft | 499 kts | 113° |
| 2026-05-06 14:09 | 21.88801 | 66.88154 | 34829 ft | 499 kts | 113° |
| 2026-05-06 14:09 | 21.86049 | 66.95018 | 34831 ft | 500 kts | 113° |
| 2026-05-06 14:10 | 21.83308 | 67.01846 | 34832 ft | 500 kts | 113° |
| 2026-05-06 14:10 | 21.80547 | 67.08713 | 34832 ft | 500 kts | 113° |
| 2026-05-06 14:11 | 21.77782 | 67.15582 | 34834 ft | 500 kts | 113° |
| 2026-05-06 14:11 | 21.75015 | 67.22443 | 34832 ft | 498 kts | 113° |
| 2026-05-06 14:12 | 21.72257 | 67.29275 | 34837 ft | 498 kts | 113° |
| 2026-05-06 14:12 | 21.69508 | 67.36075 | 34837 ft | 498 kts | 113° |
| 2026-05-06 14:13 | 21.66743 | 67.42904 | 34837 ft | 498 kts | 113° |
| 2026-05-06 14:13 | 21.63973 | 67.49737 | 34837 ft | 498 kts | 113° |
| 2026-05-06 14:14 | 21.61203 | 67.56559 | 34844 ft | 498 kts | 113° |
| 2026-05-06 14:14 | 21.58429 | 67.63384 | 34844 ft | 499 kts | 113° |
| 2026-05-06 14:15 | 21.55645 | 67.70223 | 34841 ft | 499 kts | 113° |
| 2026-05-06 14:15 | 21.52865 | 67.77041 | 34838 ft | 497 kts | 113° |
| 2026-05-06 14:16 | 21.50089 | 67.83839 | 34840 ft | 496 kts | 113° |
| 2026-05-06 14:16 | 21.47329 | 67.90591 | 34839 ft | 496 kts | 113° |
| 2026-05-06 14:17 | 21.44552 | 67.97375 | 34840 ft | 496 kts | 113° |
| 2026-05-06 14:17 | 21.41772 | 68.04158 | 34840 ft | 496 kts | 113° |
| 2026-05-06 14:18 | 21.38991 | 68.10931 | 34840 ft | 496 kts | 113° |
| 2026-05-06 14:18 | 21.36201 | 68.17720 | 34843 ft | 496 kts | 113° |
| 2026-05-06 14:19 | 21.33415 | 68.24490 | 34843 ft | 496 kts | 113° |
| 2026-05-06 14:19 | 21.30620 | 68.31272 | 34840 ft | 496 kts | 113° |
| 2026-05-06 14:20 | 21.27847 | 68.37989 | 34843 ft | 495 kts | 113° |
| 2026-05-06 14:20 | 21.25057 | 68.44740 | 34843 ft | 495 kts | 113° |
| 2026-05-06 14:21 | 21.22266 | 68.51486 | 34842 ft | 495 kts | 113° |
| 2026-05-06 14:21 | 21.19467 | 68.58241 | 34843 ft | 495 kts | 113° |
| 2026-05-06 14:22 | 21.16668 | 68.64985 | 34843 ft | 495 kts | 113° |
| 2026-05-06 14:22 | 21.13865 | 68.71733 | 34842 ft | 495 kts | 113° |
| 2026-05-06 14:23 | 21.11059 | 68.78476 | 34842 ft | 495 kts | 114° |
| 2026-05-06 14:23 | 21.08265 | 68.85184 | 34843 ft | 495 kts | 114° |
| 2026-05-06 14:24 | 21.05458 | 68.91913 | 34842 ft | 495 kts | 114° |
| 2026-05-06 14:24 | 21.02652 | 68.98632 | 34843 ft | 494 kts | 114° |
| 2026-05-06 14:25 | 20.99836 | 69.05364 | 34842 ft | 494 kts | 114° |
| 2026-05-06 14:25 | 20.97196 | 69.12150 | 34847 ft | 494 kts | 108° |
| 2026-05-06 14:26 | 20.95033 | 69.19132 | 34843 ft | 494 kts | 107° |
| 2026-05-06 14:26 | 20.92929 | 69.26075 | 34843 ft | 494 kts | 107° |
| 2026-05-06 14:27 | 20.90812 | 69.33075 | 34843 ft | 494 kts | 107° |
| 2026-05-06 14:27 | 20.88693 | 69.40078 | 34843 ft | 494 kts | 107° |
| 2026-05-06 14:28 | 20.86575 | 69.47066 | 34842 ft | 494 kts | 107° |
| 2026-05-06 14:28 | 20.84456 | 69.54048 | 34845 ft | 494 kts | 107° |
| 2026-05-06 14:29 | 20.82332 | 69.61037 | 34843 ft | 494 kts | 107° |
| 2026-05-06 14:29 | 20.80216 | 69.67983 | 34843 ft | 494 kts | 107° |
| 2026-05-06 14:30 | 20.78084 | 69.74974 | 34845 ft | 494 kts | 107° |
| 2026-05-06 14:30 | 20.75948 | 69.81968 | 34845 ft | 494 kts | 107° |
| 2026-05-06 14:31 | 20.73812 | 69.88950 | 34847 ft | 494 kts | 107° |
| 2026-05-06 14:31 | 20.71673 | 69.95925 | 34845 ft | 494 kts | 107° |
| 2026-05-06 14:32 | 20.69545 | 70.02857 | 34845 ft | 494 kts | 107° |
| 2026-05-06 14:32 | 20.67400 | 70.09830 | 34846 ft | 494 kts | 107° |
| 2026-05-06 14:33 | 20.65250 | 70.16812 | 34846 ft | 494 kts | 107° |
| 2026-05-06 14:33 | 20.63101 | 70.23781 | 34842 ft | 494 kts | 107° |
| 2026-05-06 14:34 | 20.60948 | 70.30751 | 34845 ft | 493 kts | 107° |
| 2026-05-06 14:34 | 20.58798 | 70.37704 | 34845 ft | 493 kts | 107° |
| 2026-05-06 14:35 | 20.56657 | 70.44619 | 36449 ft | 493 kts | 108° |
| 2026-05-06 14:35 | 20.55580 | 70.48091 | 34708 ft | 495 kts | 108° |
| 2026-05-06 14:35 | 20.54499 | 70.51572 | 34769 ft | 494 kts | 108° |
| 2026-05-06 14:36 | 20.52334 | 70.58535 | 34842 ft | 493 kts | 108° |
| 2026-05-06 14:36 | 20.50174 | 70.65477 | 34843 ft | 493 kts | 108° |
| 2026-05-06 14:37 | 20.48009 | 70.72418 | 34843 ft | 493 kts | 108° |
| 2026-05-06 14:37 | 20.45843 | 70.79355 | 34843 ft | 493 kts | 108° |
| 2026-05-06 14:38 | 20.43692 | 70.86233 | 34843 ft | 493 kts | 108° |
| 2026-05-06 14:38 | 20.41519 | 70.93170 | 34838 ft | 493 kts | 108° |
| 2026-05-06 14:39 | 20.40430 | 70.96641 | 34595 ft | 492 kts | 108° |
| 2026-05-06 14:39 | 20.39342 | 71.00108 | 34259 ft | 493 kts | 108° |
| 2026-05-06 14:39 | 20.38254 | 71.03573 | 33928 ft | 494 kts | 108° |
| 2026-05-06 14:39 | 20.37162 | 71.07047 | 33551 ft | 495 kts | 108° |
| 2026-05-06 14:40 | 20.36063 | 71.10541 | 33182 ft | 496 kts | 108° |
| 2026-05-06 14:40 | 20.34964 | 71.14031 | 32811 ft | 497 kts | 108° |
| 2026-05-06 14:40 | 20.33864 | 71.17521 | 32450 ft | 497 kts | 108° |
| 2026-05-06 14:40 | 20.32776 | 71.20972 | 32085 ft | 498 kts | 108° |
| 2026-05-06 14:41 | 20.31673 | 71.24466 | 31729 ft | 498 kts | 108° |
| 2026-05-06 14:41 | 20.30566 | 71.27973 | 31375 ft | 499 kts | 108° |
| 2026-05-06 14:41 | 20.29457 | 71.31480 | 31023 ft | 500 kts | 108° |
| 2026-05-06 14:41 | 20.28346 | 71.34993 | 30681 ft | 500 kts | 108° |
| 2026-05-06 14:42 | 20.27233 | 71.38508 | 30340 ft | 501 kts | 108° |
| 2026-05-06 14:42 | 20.26117 | 71.42033 | 30003 ft | 501 kts | 108° |
| 2026-05-06 14:42 | 20.25001 | 71.45553 | 29624 ft | 500 kts | 108° |
| 2026-05-06 14:42 | 20.23888 | 71.49060 | 29227 ft | 498 kts | 108° |
| 2026-05-06 14:43 | 20.22780 | 71.52550 | 28836 ft | 495 kts | 108° |
| 2026-05-06 14:43 | 20.21551 | 71.55925 | 28460 ft | 493 kts | 116° |
| 2026-05-06 14:43 | 20.19665 | 71.58946 | 28073 ft | 490 kts | 129° |
| 2026-05-06 14:43 | 20.17408 | 71.61656 | 27708 ft | 488 kts | 133° |
| 2026-05-06 14:44 | 20.15089 | 71.64299 | 27341 ft | 486 kts | 133° |
| 2026-05-06 14:44 | 20.12779 | 71.66922 | 26974 ft | 483 kts | 133° |
| 2026-05-06 14:44 | 20.10495 | 71.69527 | 26618 ft | 481 kts | 133° |
| 2026-05-06 14:45 | 20.05961 | 71.74720 | 25908 ft | 476 kts | 132° |
| 2026-05-06 14:45 | 20.03705 | 71.77309 | 25571 ft | 474 kts | 132° |
| 2026-05-06 14:45 | 20.01497 | 71.79845 | 25235 ft | 472 kts | 132° |
| 2026-05-06 14:45 | 19.99273 | 71.82399 | 24899 ft | 470 kts | 132° |
| 2026-05-06 14:46 | 19.97052 | 71.84949 | 24561 ft | 468 kts | 132° |
| 2026-05-06 14:46 | 19.94837 | 71.87490 | 24230 ft | 466 kts | 132° |
| 2026-05-06 14:46 | 19.92635 | 71.90016 | 23902 ft | 465 kts | 132° |
| 2026-05-06 14:46 | 19.90442 | 71.92531 | 23592 ft | 463 kts | 132° |
| 2026-05-06 14:47 | 19.88255 | 71.95038 | 23233 ft | 461 kts | 132° |
| 2026-05-06 14:47 | 19.86078 | 71.97533 | 22844 ft | 458 kts | 131° |
| 2026-05-06 14:47 | 19.83920 | 72.00004 | 22469 ft | 455 kts | 132° |
| 2026-05-06 14:47 | 19.81778 | 72.02456 | 22082 ft | 451 kts | 132° |
| 2026-05-06 14:48 | 19.79655 | 72.04887 | 21710 ft | 447 kts | 132° |
| 2026-05-06 14:48 | 19.77527 | 72.07283 | 21345 ft | 444 kts | 134° |
| 2026-05-06 14:48 | 19.75287 | 72.09527 | 20972 ft | 441 kts | 137° |
| 2026-05-06 14:48 | 19.73047 | 72.11668 | 20620 ft | 438 kts | 137° |
| 2026-05-06 14:49 | 19.70797 | 72.13802 | 20261 ft | 434 kts | 137° |
| 2026-05-06 14:49 | 19.68547 | 72.15934 | 19909 ft | 431 kts | 137° |
| 2026-05-06 14:49 | 19.66329 | 72.18037 | 19562 ft | 428 kts | 137° |
| 2026-05-06 14:49 | 19.64122 | 72.20131 | 19217 ft | 425 kts | 137° |
| 2026-05-06 14:50 | 19.62666 | 72.21512 | 18995 ft | 423 kts | 137° |
| 2026-05-06 14:50 | 19.59744 | 72.24285 | 18532 ft | 419 kts | 137° |
| 2026-05-06 14:50 | 19.58311 | 72.25644 | 18323 ft | 417 kts | 137° |
| 2026-05-06 14:50 | 19.56157 | 72.27688 | 17969 ft | 413 kts | 137° |
| 2026-05-06 14:51 | 19.54022 | 72.29711 | 17576 ft | 410 kts | 137° |
| 2026-05-06 14:51 | 19.51900 | 72.31722 | 17201 ft | 408 kts | 138° |
| 2026-05-06 14:51 | 19.49792 | 72.33720 | 16827 ft | 405 kts | 138° |
| 2026-05-06 14:51 | 19.47693 | 72.35708 | 16452 ft | 404 kts | 138° |
| 2026-05-06 14:52 | 19.45619 | 72.37671 | 16087 ft | 393 kts | 138° |
| 2026-05-06 14:52 | 19.43614 | 72.39568 | 15722 ft | 379 kts | 138° |
| 2026-05-06 14:52 | 19.41679 | 72.41400 | 15352 ft | 367 kts | 138° |
| 2026-05-06 14:52 | 19.39803 | 72.43174 | 15001 ft | 356 kts | 138° |
| 2026-05-06 14:53 | 19.37984 | 72.44894 | 14645 ft | 346 kts | 138° |
| 2026-05-06 14:53 | 19.36212 | 72.46569 | 14294 ft | 337 kts | 139° |
| 2026-05-06 14:53 | 19.34503 | 72.48184 | 13951 ft | 331 kts | 139° |
| 2026-05-06 14:53 | 19.32793 | 72.49800 | 13613 ft | 327 kts | 139° |
| 2026-05-06 14:54 | 19.31098 | 72.51401 | 13228 ft | 326 kts | 139° |
| 2026-05-06 14:54 | 19.29414 | 72.52989 | 12855 ft | 322 kts | 139° |
| 2026-05-06 14:54 | 19.27753 | 72.54558 | 12483 ft | 316 kts | 139° |
| 2026-05-06 14:54 | 19.26128 | 72.56090 | 12115 ft | 309 kts | 139° |
| 2026-05-06 14:55 | 19.24540 | 72.57593 | 11740 ft | 303 kts | 138° |
| 2026-05-06 14:55 | 19.23111 | 72.59207 | 11379 ft | 297 kts | 127° |
| 2026-05-06 14:55 | 19.22111 | 72.61067 | 11003 ft | 285 kts | 111° |
| 2026-05-06 14:55 | 19.21630 | 72.63050 | 10646 ft | 275 kts | 96° |
| 2026-05-06 14:56 | 19.21523 | 72.65055 | 10301 ft | 272 kts | 91° |
| 2026-05-06 14:56 | 19.21514 | 72.67065 | 9962 ft | 274 kts | 90° |
| 2026-05-06 14:56 | 19.21516 | 72.69072 | 9608 ft | 271 kts | 90° |
| 2026-05-06 14:56 | 19.21515 | 72.71061 | 9230 ft | 269 kts | 90° |
| 2026-05-06 14:57 | 19.21509 | 72.73033 | 8853 ft | 267 kts | 90° |
| 2026-05-06 14:57 | 19.21501 | 72.74971 | 8489 ft | 267 kts | 90° |
| 2026-05-06 14:57 | 19.21491 | 72.76930 | 8125 ft | 266 kts | 90° |
| 2026-05-06 14:57 | 19.21480 | 72.78867 | 7799 ft | 260 kts | 91° |
| 2026-05-06 14:58 | 19.21468 | 72.80782 | 7452 ft | 261 kts | 91° |
| 2026-05-06 14:58 | 19.21456 | 72.82683 | 7103 ft | 255 kts | 91° |
| 2026-05-06 14:58 | 19.21444 | 72.84537 | 6752 ft | 249 kts | 91° |
| 2026-05-06 14:58 | 19.21432 | 72.86346 | 6402 ft | 243 kts | 91° |
| 2026-05-06 14:59 | 19.21420 | 72.88122 | 5980 ft | 239 kts | 91° |
| 2026-05-06 14:59 | 19.21408 | 72.89863 | 5613 ft | 235 kts | 91° |
| 2026-05-06 14:59 | 19.21396 | 72.91583 | 5259 ft | 232 kts | 91° |
| 2026-05-06 14:59 | 19.21383 | 72.93285 | 4912 ft | 231 kts | 91° |
| 2026-05-06 15:00 | 19.21371 | 72.94988 | 4785 ft | 232 kts | 90° |
| 2026-05-06 15:00 | 19.21357 | 72.96692 | 4805 ft | 231 kts | 91° |
| 2026-05-06 15:00 | 19.21343 | 72.98369 | 4673 ft | 230 kts | 90° |
| 2026-05-06 15:00 | 19.21331 | 73.00060 | 4462 ft | 230 kts | 91° |
| 2026-05-06 15:01 | 19.21319 | 73.01756 | 4246 ft | 230 kts | 91° |
| 2026-05-06 15:01 | 19.21307 | 73.03442 | 4066 ft | 229 kts | 90° |
| 2026-05-06 15:01 | 19.21294 | 73.05135 | 4033 ft | 229 kts | 91° |
| 2026-05-06 15:01 | 19.21150 | 73.06801 | 4021 ft | 225 kts | 108° |
| 2026-05-06 15:02 | 19.20335 | 73.08098 | 4023 ft | 206 kts | 141° |
| 2026-05-06 15:02 | 19.19100 | 73.08769 | 4030 ft | 199 kts | 171° |
| 2026-05-06 15:02 | 19.17732 | 73.08898 | 4035 ft | 197 kts | 181° |
| 2026-05-06 15:02 | 19.16364 | 73.08900 | 4026 ft | 196 kts | 182° |
| 2026-05-06 15:03 | 19.14995 | 73.08887 | 4027 ft | 197 kts | 182° |
| 2026-05-06 15:03 | 19.13623 | 73.08871 | 4029 ft | 197 kts | 183° |
| 2026-05-06 15:03 | 19.12253 | 73.08857 | 4030 ft | 197 kts | 183° |
| 2026-05-06 15:03 | 19.10886 | 73.08830 | 3927 ft | 196 kts | 189° |
| 2026-05-06 15:04 | 19.09763 | 73.08180 | 3745 ft | 188 kts | 235° |
| 2026-05-06 15:04 | 19.09254 | 73.06928 | 3568 ft | 187 kts | 260° |
| 2026-05-06 15:04 | 19.09156 | 73.05556 | 3373 ft | 187 kts | 269° |
| 2026-05-06 15:04 | 19.09140 | 73.04184 | 3129 ft | 186 kts | 270° |
| 2026-05-06 15:05 | 19.09123 | 73.02819 | 2754 ft | 185 kts | 269° |
| 2026-05-06 15:05 | 19.09098 | 73.01471 | 2418 ft | 180 kts | 269° |
| 2026-05-06 15:05 | 19.09070 | 73.00185 | 2184 ft | 171 kts | 270° |
| 2026-05-06 15:05 | 19.09053 | 72.98963 | 1963 ft | 161 kts | 269° |
| 2026-05-06 15:06 | 19.09037 | 72.97836 | 1786 ft | 146 kts | 269° |
| 2026-05-06 15:06 | 19.09021 | 72.96789 | 1593 ft | 142 kts | 270° |
| 2026-05-06 15:06 | 19.09006 | 72.95751 | 1416 ft | 141 kts | 269° |
| 2026-05-06 15:06 | 19.08991 | 72.94718 | 1252 ft | 140 kts | 269° |
| 2026-05-06 15:07 | 19.08976 | 72.93685 | 1084 ft | 141 kts | 269° |
| 2026-05-06 15:07 | 19.08961 | 72.92649 | 905 ft | 140 kts | 269° |
| 2026-05-06 15:07 | 19.08945 | 72.91629 | 748 ft | 139 kts | 270° |
| 2026-05-06 15:07 | 19.08930 | 72.90595 | 591 ft | 141 kts | 269° |
| 2026-05-06 15:08 | 19.08914 | 72.89574 | 416 ft | 140 kts | 272° |
| 2026-05-06 15:08 | 19.08905 | 72.88555 | 250 ft | 139 kts | 271° |
| 2026-05-06 15:08 | 19.08886 | 72.87529 | 85 ft | 140 kts | 272° |
| 2026-05-06 15:08 | 19.08872 | 72.86540 | 34 ft | 120 kts | 264° |
| 2026-05-06 15:09 | 19.08862 | 72.85776 | 30 ft | 88 kts | 269° |
| 2026-05-06 15:09 | 19.08885 | 72.85369 | 31 ft | 27 kts | 294° |
| 2026-05-06 15:09 | 19.08965 | 72.85239 | 29 ft | 12 kts | 348° |
| 2026-05-06 15:09 | 19.09025 | 72.85289 | 29 ft | 11 kts | 91° |
| 2026-05-06 15:10 | 19.09023 | 72.85379 | 29 ft | 19 kts | 87° |
| 2026-05-06 15:10 | 19.09029 | 72.85586 | 30 ft | 31 kts | 88° |
| 2026-05-06 15:10 | 19.09024 | 72.85812 | 31 ft | 31 kts | 90° |
| 2026-05-06 15:10 | 19.09031 | 72.86043 | 32 ft | 32 kts | 87° |
| 2026-05-06 15:11 | 19.09036 | 72.86274 | 34 ft | 25 kts | 88° |
| 2026-05-06 15:11 | 19.09110 | 72.86396 | 35 ft | 21 kts | 47° |
| 2026-05-06 15:11 | 19.09209 | 72.86513 | 36 ft | 22 kts | 49° |
| 2026-05-06 15:11 | 19.09311 | 72.86636 | 36 ft | 23 kts | 48° |
| 2026-05-06 15:12 | 19.09419 | 72.86768 | 36 ft | 18 kts | 53° |
| 2026-05-06 15:12 | 19.09387 | 72.86861 | 36 ft | 15 kts | 139° |
| 2026-05-06 15:12 | 19.09368 | 72.86924 | 36 ft | 7 kts | 66° |
| 2026-05-06 15:12 | 19.09393 | 72.86958 | 36 ft | 4 kts | 80° |
| 2026-05-06 15:13 | 19.09388 | 72.86976 | 36 ft | 0 kts | 103° |